createdAt,value
2022-09-15T00:02:24.673Z,20.43
2022-09-15T00:04:51.359Z,20.42
2022-09-15T00:07:17.857Z,20.38
2022-09-15T00:09:44.353Z,20.27
2022-09-15T00:12:10.967Z,20.26
2022-09-15T00:14:37.470Z,20.23
2022-09-15T00:17:04.311Z,20.28
2022-09-15T00:19:30.863Z,20.27
2022-09-15T00:21:57.356Z,20.30
2022-09-15T00:24:23.840Z,20.35
2022-09-15T00:26:50.649Z,20.38
2022-09-15T00:29:17.172Z,20.35
2022-09-15T00:31:43.727Z,20.34
2022-09-15T00:34:12.676Z,20.30
2022-09-15T00:36:39.221Z,20.27
2022-09-15T00:39:05.748Z,20.19
2022-09-15T00:41:32.696Z,20.13
2022-09-15T00:44:02.984Z,20.05
2022-09-15T00:46:38.555Z,20.15
2022-09-15T00:49:09.468Z,20.11
2022-09-15T00:51:50.899Z,20.15
2022-09-15T00:54:26.630Z,20.19
2022-09-15T00:56:56.549Z,20.21
2022-09-15T00:59:26.403Z,20.21
2022-09-15T01:02:01.080Z,20.24
2022-09-15T01:04:27.666Z,20.26
2022-09-15T01:06:59.647Z,20.25
2022-09-15T01:09:49.104Z,20.21
2022-09-15T01:12:16.452Z,20.12
2022-09-15T01:14:42.973Z,20.06
2022-09-15T01:17:34.436Z,20.08
2022-09-15T01:20:11.830Z,20.08
2022-09-15T01:23:26.771Z,20.19
2022-09-15T01:25:53.240Z,20.25
2022-09-15T01:28:53.579Z,20.27
2022-09-15T01:32:17.440Z,20.28
2022-09-15T01:35:00.740Z,20.28
2022-09-15T01:37:34.390Z,20.33
2022-09-15T01:40:02.592Z,20.30
2022-09-15T01:42:32.209Z,20.36
2022-09-15T01:45:05.114Z,20.37
2022-09-15T01:47:34.134Z,20.36
2022-09-15T01:50:10.152Z,20.33
2022-09-15T01:52:40.902Z,20.30
2022-09-15T01:55:14.392Z,20.21
2022-09-15T01:57:40.948Z,20.12
2022-09-15T02:00:08.407Z,20.07
2022-09-15T02:02:49.561Z,20.02
2022-09-15T02:05:38.207Z,19.97
2022-09-15T02:08:27.775Z,19.93
2022-09-15T02:11:12.818Z,19.82
2022-09-15T02:13:48.690Z,19.87
2022-09-15T02:16:24.560Z,19.89
2022-09-15T02:19:08.818Z,19.79
2022-09-15T02:22:07.657Z,19.77
2022-09-15T02:24:41.000Z,19.76
2022-09-15T02:27:13.135Z,19.75
2022-09-15T02:29:42.174Z,19.79
2022-09-15T02:32:09.873Z,19.83
2022-09-15T02:34:41.454Z,19.87
2022-09-15T02:37:09.678Z,19.89
2022-09-15T02:39:42.268Z,19.88
2022-09-15T02:42:09.408Z,19.91
2022-09-15T02:44:36.410Z,19.89
2022-09-15T02:47:03.860Z,19.89
2022-09-15T02:49:30.631Z,19.86
2022-09-15T02:51:57.147Z,19.84
2022-09-15T02:54:23.632Z,19.81
2022-09-15T02:56:50.382Z,19.84
2022-09-15T02:59:16.861Z,19.85
2022-09-15T03:01:44.903Z,19.88
2022-09-15T03:04:11.609Z,19.81
2022-09-15T03:06:38.103Z,19.77
2022-09-15T03:09:07.438Z,19.71
2022-09-15T03:11:35.409Z,19.77
2022-09-15T03:14:04.740Z,19.73
2022-09-15T03:16:34.417Z,19.79
2022-09-15T03:19:01.347Z,19.82
2022-09-15T03:21:29.603Z,19.87
2022-09-15T03:23:57.947Z,19.89
2022-09-15T03:26:24.790Z,19.89
2022-09-15T03:28:51.281Z,19.85
2022-09-15T03:31:17.843Z,19.84
2022-09-15T03:33:44.343Z,19.87
2022-09-15T03:36:11.099Z,19.87
2022-09-15T03:38:37.997Z,19.93
2022-09-15T03:41:10.527Z,19.92
2022-09-15T03:43:37.953Z,19.87
2022-09-15T03:46:07.067Z,19.85
2022-09-15T03:48:35.459Z,19.81
2022-09-15T03:51:03.751Z,19.83
2022-09-15T03:53:35.398Z,19.79
2022-09-15T03:56:31.211Z,19.75
2022-09-15T03:58:59.040Z,19.77
2022-09-15T04:01:26.116Z,19.74
2022-09-15T04:03:52.883Z,19.66
2022-09-15T04:06:22.092Z,19.66
2022-09-15T04:08:52.811Z,19.60
2022-09-15T04:11:21.102Z,19.64
2022-09-15T04:13:48.559Z,19.60
2022-09-15T04:16:18.454Z,19.60
2022-09-15T04:18:45.960Z,19.51
2022-09-15T04:21:15.043Z,19.54
2022-09-15T04:23:43.139Z,19.52
2022-09-15T04:26:19.169Z,19.51
2022-09-15T04:28:45.661Z,19.47
2022-09-15T04:31:14.243Z,19.51
2022-09-15T04:33:41.357Z,19.53
2022-09-15T04:36:11.172Z,19.44
2022-09-15T04:38:38.737Z,19.47
2022-09-15T04:41:06.750Z,19.49
2022-09-15T04:43:34.223Z,19.48
2022-09-15T04:46:00.964Z,19.46
2022-09-15T04:48:28.306Z,19.49
2022-09-15T04:50:54.966Z,19.52
2022-09-15T04:53:21.686Z,19.56
2022-09-15T04:55:48.314Z,19.57
2022-09-15T04:58:14.787Z,19.57
2022-09-15T05:00:45.711Z,19.56
2022-09-15T05:03:14.166Z,19.60
2022-09-15T05:05:41.441Z,19.61
2022-09-15T05:08:08.153Z,19.64
2022-09-15T05:10:34.944Z,19.66
2022-09-15T05:13:01.419Z,19.72
2022-09-15T05:15:27.944Z,19.73
2022-09-15T05:17:54.439Z,19.75
2022-09-15T05:20:20.982Z,19.75
2022-09-15T05:22:47.492Z,19.81
2022-09-15T05:25:14.148Z,19.88
2022-09-15T05:27:40.629Z,19.91
2022-09-15T05:30:35.921Z,19.90
2022-09-15T05:32:54.547Z,19.87
2022-09-15T05:35:21.069Z,19.92
2022-09-15T05:37:47.571Z,19.92
2022-09-15T05:40:15.243Z,20.01
2022-09-15T05:42:41.747Z,20.01
2022-09-15T05:45:08.950Z,20.03
2022-09-15T05:47:35.418Z,19.98
2022-09-15T05:50:01.926Z,19.98
2022-09-15T05:52:28.444Z,20.09
2022-09-15T05:54:58.994Z,20.13
2022-09-15T05:57:25.885Z,20.13
2022-09-15T05:59:52.444Z,20.19
2022-09-15T06:02:19.041Z,20.33
2022-09-15T06:04:45.611Z,20.37
2022-09-15T06:07:12.384Z,20.52
2022-09-15T06:09:39.373Z,20.69
2022-09-15T06:12:06.068Z,20.86
2022-09-15T06:14:32.818Z,21.05
2022-09-15T06:16:59.304Z,21.18
2022-09-15T06:19:25.753Z,21.44
2022-09-15T06:21:52.735Z,21.45
2022-09-15T06:24:19.440Z,21.35
2022-09-15T06:26:45.955Z,21.43
2022-09-15T06:29:12.983Z,21.20
2022-09-15T06:31:39.583Z,21.10
2022-09-15T06:34:06.676Z,21.04
2022-09-15T06:36:33.180Z,20.95
2022-09-15T06:39:00.079Z,21.02
2022-09-15T06:41:33.051Z,21.03
2022-09-15T06:44:13.820Z,20.96
2022-09-15T06:46:40.315Z,20.95
2022-09-15T06:49:07.085Z,21.13
2022-09-15T06:51:35.554Z,21.24
2022-09-15T06:54:03.013Z,21.26
2022-09-15T06:56:30.949Z,21.21
2022-09-15T06:59:00.081Z,21.28
2022-09-15T07:01:29.417Z,21.36
2022-09-15T07:03:58.122Z,21.57
2022-09-15T07:06:27.259Z,21.57
2022-09-15T07:08:53.940Z,21.72
2022-09-15T07:11:20.596Z,22.00
2022-09-15T07:13:50.395Z,22.16
2022-09-15T07:16:19.074Z,22.36
2022-09-15T07:18:46.623Z,22.92
2022-09-15T07:21:16.647Z,23.78
2022-09-15T07:23:44.258Z,24.35
2022-09-15T07:26:13.907Z,25.53
2022-09-15T07:28:43.733Z,26.10
2022-09-15T07:31:12.507Z,26.79
2022-09-15T07:33:39.300Z,27.69
2022-09-15T07:36:07.890Z,28.24
2022-09-15T07:38:40.236Z,28.51
2022-09-15T07:41:14.543Z,28.13
2022-09-15T07:43:45.650Z,27.90
2022-09-15T07:46:12.224Z,27.81
2022-09-15T07:48:38.904Z,27.96
2022-09-15T07:51:05.611Z,28.05
2022-09-15T07:53:32.763Z,27.82
2022-09-15T07:55:59.208Z,27.81
2022-09-15T07:58:25.747Z,28.12
2022-09-15T08:00:52.545Z,28.61
2022-09-15T08:03:19.164Z,29.36
2022-09-15T08:05:46.235Z,30.03
2022-09-15T08:08:12.999Z,30.44
2022-09-15T08:10:41.728Z,30.84
2022-09-15T08:13:08.472Z,30.75
2022-09-15T08:15:38.713Z,30.43
2022-09-15T08:18:05.887Z,30.86
2022-09-15T08:20:32.853Z,31.39
2022-09-15T08:22:59.481Z,32.11
2022-09-15T08:25:26.057Z,32.18
2022-09-15T08:27:54.431Z,31.34
2022-09-15T08:30:21.867Z,32.00
2022-09-15T08:32:48.860Z,31.91
2022-09-15T08:35:15.927Z,31.78
2022-09-15T08:37:42.667Z,32.04
2022-09-15T08:40:22.452Z,32.71
2022-09-15T08:42:52.124Z,32.86
2022-09-15T08:45:28.606Z,32.77
2022-09-15T08:48:00.220Z,33.85
2022-09-15T08:50:40.899Z,33.61
2022-09-15T08:53:19.943Z,34.51
2022-09-15T08:55:52.574Z,34.03
2022-09-15T08:58:25.298Z,34.88
2022-09-15T09:01:12.062Z,34.96
2022-09-15T09:03:58.916Z,35.87
2022-09-15T09:07:03.751Z,35.85
2022-09-15T09:09:44.989Z,35.48
2022-09-15T09:12:29.309Z,35.75
2022-09-15T09:15:27.077Z,35.68
2022-09-15T09:18:35.321Z,35.47
2022-09-15T09:21:16.923Z,35.72
2022-09-15T09:23:49.834Z,35.48
2022-09-15T09:26:16.597Z,34.82
2022-09-15T09:28:50.192Z,35.22
2022-09-15T09:31:21.376Z,35.25
2022-09-15T09:33:56.977Z,34.89
2022-09-15T09:36:23.676Z,34.82
2022-09-15T09:38:50.958Z,33.67
2022-09-15T09:41:19.252Z,34.65
2022-09-15T09:43:48.893Z,34.27
2022-09-15T09:46:18.051Z,34.27
2022-09-15T09:48:52.224Z,34.88
2022-09-15T09:51:39.206Z,35.10
2022-09-15T09:54:16.451Z,35.53
2022-09-15T09:56:44.611Z,35.58
2022-09-15T09:59:44.839Z,35.53
2022-09-15T10:02:11.285Z,35.54
2022-09-15T10:04:58.703Z,35.79
2022-09-15T10:07:26.761Z,35.43
2022-09-15T10:09:59.677Z,33.98
2022-09-15T10:12:32.793Z,34.81
2022-09-15T10:15:05.192Z,35.00
2022-09-15T10:17:52.232Z,35.02
2022-09-15T10:20:25.451Z,34.82
2022-09-15T10:22:52.545Z,35.22
2022-09-15T10:25:22.058Z,34.99
2022-09-15T10:28:14.739Z,34.69
2022-09-15T10:30:59.825Z,34.18
2022-09-15T10:33:29.047Z,34.29
2022-09-15T10:36:02.111Z,34.39
2022-09-15T10:38:40.695Z,34.66
2022-09-15T10:41:28.772Z,34.26
2022-09-15T10:44:32.961Z,33.95
2022-09-15T10:47:35.603Z,33.24
2022-09-15T10:50:34.481Z,33.07
2022-09-15T10:53:22.300Z,33.04
2022-09-15T10:56:18.263Z,33.03
2022-09-15T10:58:56.886Z,32.99
2022-09-15T11:01:29.667Z,32.83
2022-09-15T11:04:20.891Z,32.92
2022-09-15T11:07:07.699Z,32.80
2022-09-15T11:09:57.444Z,32.50
2022-09-15T11:12:49.540Z,32.84
2022-09-15T11:15:35.842Z,32.88
2022-09-15T11:18:41.488Z,32.59
2022-09-15T11:21:24.821Z,32.77
2022-09-15T11:24:03.624Z,32.80
2022-09-15T11:26:37.003Z,32.63
2022-09-15T11:29:11.129Z,32.52
2022-09-15T11:31:41.980Z,32.50
2022-09-15T11:34:23.380Z,32.22
2022-09-15T11:36:49.868Z,32.37
2022-09-15T11:39:33.190Z,32.60
2022-09-15T11:42:19.183Z,32.49
2022-09-15T11:44:47.951Z,32.52
2022-09-15T11:47:26.257Z,32.50
2022-09-15T11:50:11.021Z,32.62
2022-09-15T11:52:52.212Z,32.49
2022-09-15T11:55:54.258Z,32.28
2022-09-15T11:58:32.969Z,32.16
2022-09-15T12:01:02.570Z,31.89
2022-09-15T12:03:48.302Z,31.57
2022-09-15T12:06:29.736Z,31.25
2022-09-15T12:09:02.118Z,31.10
2022-09-15T12:11:32.167Z,31.02
2022-09-15T12:13:59.953Z,31.12
2022-09-15T12:16:28.090Z,31.18
2022-09-15T12:18:56.473Z,31.06
2022-09-15T12:21:25.979Z,31.22
2022-09-15T12:24:23.436Z,31.30
2022-09-15T12:26:50.006Z,31.29
2022-09-15T12:29:22.456Z,31.40
2022-09-15T12:31:49.029Z,31.54
2022-09-15T12:34:37.014Z,31.89
2022-09-15T12:37:10.530Z,32.27
2022-09-15T12:39:42.275Z,32.48
2022-09-15T12:42:17.989Z,32.67
2022-09-15T12:44:49.961Z,32.55
2022-09-15T12:47:31.759Z,32.41
2022-09-15T12:50:07.231Z,32.37
2022-09-15T12:52:44.949Z,32.03
2022-09-15T12:55:19.061Z,31.86
2022-09-15T12:57:52.475Z,31.91
2022-09-15T13:00:32.677Z,31.64
2022-09-15T13:03:00.462Z,31.65
2022-09-15T13:05:41.976Z,31.87
2022-09-15T13:08:15.312Z,31.75
2022-09-15T13:10:59.518Z,31.54
2022-09-15T13:13:43.792Z,31.33
2022-09-15T13:16:33.706Z,31.18
2022-09-15T13:19:08.928Z,30.78
2022-09-15T13:21:38.391Z,30.83
2022-09-15T13:24:08.406Z,31.08
2022-09-15T13:26:37.501Z,31.31
2022-09-15T13:29:06.354Z,31.06
2022-09-15T13:31:48.122Z,31.05
2022-09-15T13:38:06.935Z,30.91
2022-09-15T13:41:14.440Z,30.85
2022-09-15T13:43:47.449Z,30.56
2022-09-15T13:46:43.508Z,30.51
2022-09-15T13:49:37.318Z,30.51
2022-09-15T13:52:18.705Z,30.37
2022-09-15T13:55:17.355Z,30.41
2022-09-15T14:00:44.195Z,30.28
2022-09-15T14:03:16.345Z,30.38
2022-09-15T14:05:44.703Z,30.56
2022-09-15T14:08:19.350Z,30.35
2022-09-15T14:10:50.334Z,30.54
2022-09-15T14:13:21.202Z,30.41
2022-09-15T14:16:19.146Z,30.33
2022-09-15T14:18:46.646Z,30.31
2022-09-15T14:21:25.034Z,30.47
2022-09-15T14:23:57.827Z,30.14
2022-09-15T14:26:30.576Z,30.15
2022-09-15T14:29:02.846Z,30.06
2022-09-15T14:31:37.258Z,29.90
2022-09-15T14:34:08.341Z,29.65
2022-09-15T14:36:35.156Z,29.30
2022-09-15T14:39:27.878Z,29.31
2022-09-15T14:41:54.486Z,29.31
2022-09-15T14:47:27.849Z,29.35
2022-09-15T14:50:24.092Z,29.09
2022-09-15T14:52:54.888Z,28.98
2022-09-15T14:55:42.377Z,28.88
2022-09-15T14:58:30.291Z,28.77
2022-09-15T15:01:15.524Z,28.52
2022-09-15T15:03:57.309Z,28.65
2022-09-15T15:06:59.140Z,28.74
2022-09-15T15:09:44.675Z,28.92
2022-09-15T15:12:26.475Z,29.01
2022-09-15T15:14:55.068Z,28.75
2022-09-15T15:17:30.184Z,28.68
2022-09-15T15:20:18.897Z,28.53
2022-09-15T15:22:46.181Z,28.39
2022-09-15T15:25:32.159Z,28.30
2022-09-15T15:28:00.139Z,28.15
2022-09-15T15:30:35.298Z,27.97
2022-09-15T15:33:19.442Z,27.92
2022-09-15T15:35:46.717Z,27.94
2022-09-15T15:38:18.335Z,27.87
2022-09-15T15:40:45.773Z,27.82
2022-09-15T15:43:26.469Z,27.87
2022-09-15T15:46:00.976Z,28.01
2022-09-15T15:48:32.820Z,28.13
2022-09-15T15:51:04.729Z,28.24
2022-09-15T15:53:31.513Z,28.30
2022-09-15T15:55:59.705Z,28.31
2022-09-15T15:58:26.362Z,28.30
2022-09-15T16:00:56.383Z,28.36
2022-09-15T16:03:24.539Z,28.28
2022-09-15T16:05:59.418Z,28.25
2022-09-15T16:08:39.701Z,28.16
2022-09-15T16:11:09.813Z,28.09
2022-09-15T16:13:36.328Z,27.98
2022-09-15T16:16:13.895Z,27.96
2022-09-15T16:18:40.555Z,27.85
2022-09-15T16:21:07.076Z,27.78
2022-09-15T16:23:33.762Z,27.70
2022-09-15T16:26:05.540Z,27.63
2022-09-15T16:28:32.103Z,27.60
2022-09-15T16:30:59.398Z,27.51
2022-09-15T16:33:26.599Z,27.40
2022-09-15T16:35:55.808Z,27.39
2022-09-15T16:38:25.693Z,27.32
2022-09-15T16:40:52.652Z,27.34
2022-09-15T16:43:22.515Z,27.26
2022-09-15T16:45:49.891Z,27.17
2022-09-15T16:48:17.168Z,27.09
2022-09-15T16:50:55.821Z,27.06
2022-09-15T16:53:31.500Z,26.95
2022-09-15T16:55:58.030Z,26.92
2022-09-15T16:58:24.527Z,26.86
2022-09-15T17:00:52.533Z,26.79
2022-09-15T17:03:21.859Z,26.74
2022-09-15T17:05:53.311Z,26.65
2022-09-15T17:08:22.309Z,26.61
2022-09-15T17:10:49.846Z,26.51
2022-09-15T17:13:21.659Z,26.40
2022-09-15T17:15:50.892Z,26.30
2022-09-15T17:18:17.426Z,26.15
2022-09-15T17:20:47.005Z,26.11
2022-09-15T17:23:23.570Z,26.03
2022-09-15T17:25:59.020Z,25.92
2022-09-15T17:28:28.802Z,25.86
2022-09-15T17:31:05.961Z,25.82
2022-09-15T17:33:33.252Z,25.75
2022-09-15T17:36:00.353Z,25.70
2022-09-15T17:38:27.159Z,25.73
2022-09-15T17:40:55.288Z,25.68
2022-09-15T17:43:25.178Z,25.69
2022-09-15T17:45:52.524Z,25.62
2022-09-15T17:48:19.704Z,25.61
2022-09-15T17:50:48.819Z,25.56
2022-09-15T17:53:17.079Z,25.50
2022-09-15T17:55:43.688Z,25.55
2022-09-15T17:58:10.483Z,25.47
2022-09-15T18:00:39.315Z,25.42
2022-09-15T18:03:17.351Z,25.34
2022-09-15T18:05:43.865Z,25.27
2022-09-15T18:08:10.408Z,25.20
2022-09-15T18:10:37.527Z,25.16
2022-09-15T18:13:06.301Z,25.09
2022-09-15T18:15:34.794Z,25.09
2022-09-15T18:18:04.186Z,25.04
2022-09-15T18:20:32.736Z,25.00
2022-09-15T18:23:00.113Z,24.94
2022-09-15T18:25:36.823Z,25.00
2022-09-15T18:28:04.027Z,24.97
2022-09-15T18:30:33.681Z,25.02
2022-09-15T18:33:00.335Z,24.93
2022-09-15T18:35:26.900Z,24.93
2022-09-15T18:37:59.395Z,24.95
2022-09-15T18:40:27.507Z,24.90
2022-09-15T18:42:54.224Z,24.86
2022-09-15T18:45:21.773Z,24.82
2022-09-15T18:47:50.304Z,24.84
2022-09-15T18:50:18.960Z,24.73
2022-09-15T18:52:45.832Z,24.75
2022-09-15T18:55:22.671Z,24.65
2022-09-15T18:57:49.546Z,24.53
2022-09-15T19:00:19.674Z,24.46
2022-09-15T19:02:46.498Z,24.43
2022-09-15T19:05:15.613Z,24.30
2022-09-15T19:07:43.506Z,24.09
2022-09-15T19:10:11.593Z,24.08
2022-09-15T19:12:38.854Z,23.95
2022-09-15T19:15:10.785Z,23.92
2022-09-15T19:17:38.724Z,23.88
2022-09-15T19:20:07.458Z,23.86
2022-09-15T19:22:34.627Z,23.85
2022-09-15T19:25:01.400Z,23.88
2022-09-15T19:27:28.031Z,23.89
2022-09-15T19:29:54.693Z,23.83
2022-09-15T19:32:23.439Z,23.80
2022-09-15T19:34:50.035Z,23.73
2022-09-15T19:37:19.082Z,23.74
2022-09-15T19:39:46.872Z,23.64
2022-09-15T19:42:16.905Z,23.49
2022-09-15T19:44:43.673Z,23.38
2022-09-15T19:47:10.502Z,23.23
2022-09-15T19:49:37.144Z,22.89
2022-09-15T19:52:05.298Z,22.86
2022-09-15T19:54:32.168Z,22.78
2022-09-15T19:56:58.730Z,22.77
2022-09-15T19:59:30.202Z,22.69
2022-09-15T20:01:58.069Z,22.62
2022-09-15T20:04:24.819Z,22.49
2022-09-15T20:06:51.821Z,22.47
2022-09-15T20:09:18.765Z,22.42
2022-09-15T20:11:45.499Z,22.46
2022-09-15T20:14:12.011Z,22.47
2022-09-15T20:16:38.540Z,22.47
2022-09-15T20:19:05.672Z,22.45
2022-09-15T20:21:51.613Z,22.34
2022-09-15T20:24:19.044Z,22.35
2022-09-15T20:26:45.575Z,22.35
2022-09-15T20:29:13.113Z,22.31
2022-09-15T20:31:40.031Z,22.32
2022-09-15T20:34:06.578Z,22.38
2022-09-15T20:36:36.433Z,22.45
2022-09-15T20:39:04.572Z,22.47
2022-09-15T20:41:34.409Z,22.48
2022-09-15T20:44:01.070Z,22.46
2022-09-15T20:46:29.322Z,22.41
2022-09-15T20:48:55.868Z,22.40
2022-09-15T20:51:25.474Z,22.41
2022-09-15T20:53:54.290Z,22.37
2022-09-15T20:56:24.873Z,22.27
2022-09-15T20:58:56.560Z,22.07
2022-09-15T21:01:32.921Z,21.98
2022-09-15T21:03:59.483Z,21.97
2022-09-15T21:06:27.986Z,21.99
2022-09-15T21:08:55.579Z,22.06
2022-09-15T21:11:23.936Z,21.99
2022-09-15T21:13:50.798Z,22.01
2022-09-15T21:16:21.906Z,21.98
2022-09-15T21:18:49.186Z,21.98
2022-09-15T21:21:21.949Z,21.95
2022-09-15T21:24:03.416Z,21.95
2022-09-15T21:26:32.593Z,21.94
2022-09-15T21:28:59.163Z,21.88
2022-09-15T21:31:28.438Z,21.87
2022-09-15T21:33:55.580Z,21.83
2022-09-15T21:36:30.655Z,21.81
2022-09-15T21:38:59.028Z,21.78
2022-09-15T21:41:28.052Z,21.75
2022-09-15T21:43:55.276Z,21.69
2022-09-15T21:46:27.429Z,21.68
2022-09-15T21:48:55.957Z,21.60
2022-09-15T21:51:25.041Z,21.61
2022-09-15T21:53:56.265Z,21.63
2022-09-15T21:56:23.599Z,21.68
2022-09-15T21:58:50.091Z,21.69
2022-09-15T22:01:22.725Z,21.69
2022-09-15T22:04:10.311Z,21.63
2022-09-15T22:06:40.427Z,21.57
2022-09-15T22:09:14.431Z,21.47
2022-09-15T22:11:41.238Z,21.36
2022-09-15T22:14:08.696Z,21.36
2022-09-15T22:16:37.340Z,21.40
2022-09-15T22:19:05.356Z,21.51
2022-09-15T22:21:32.604Z,21.52
2022-09-15T22:23:59.524Z,21.55
2022-09-15T22:26:28.206Z,21.50
2022-09-15T22:28:56.054Z,21.40
2022-09-15T22:31:24.149Z,21.39
2022-09-15T22:33:50.885Z,21.36
2022-09-15T22:36:28.603Z,21.33
2022-09-15T22:39:02.771Z,21.24
2022-09-15T22:41:29.713Z,21.24
2022-09-15T22:43:56.405Z,21.25
2022-09-15T22:46:23.053Z,21.24
2022-09-15T22:48:49.625Z,21.27
2022-09-15T22:51:16.465Z,21.13
2022-09-15T22:53:43.048Z,21.13
2022-09-15T22:56:20.651Z,21.12
2022-09-15T22:58:48.497Z,21.11
2022-09-15T23:01:17.749Z,21.13
2022-09-15T23:03:47.451Z,21.13
2022-09-15T23:06:14.419Z,21.11
2022-09-15T23:08:41.181Z,21.15
2022-09-15T23:11:10.853Z,21.13
2022-09-15T23:13:38.068Z,21.12
2022-09-15T23:16:05.768Z,21.12
2022-09-15T23:18:33.262Z,21.11
2022-09-15T23:21:02.812Z,21.13
2022-09-15T23:23:30.227Z,21.08
2022-09-15T23:25:56.779Z,21.06
2022-09-15T23:28:24.491Z,21.10
2022-09-15T23:30:53.065Z,21.08
2022-09-15T23:33:19.773Z,21.05
2022-09-15T23:35:47.034Z,20.99
2022-09-15T23:38:13.969Z,21.00
2022-09-15T23:40:42.578Z,20.99
2022-09-15T23:43:13.817Z,20.95
2022-09-15T23:45:40.502Z,20.93
2022-09-15T23:48:08.296Z,20.85
2022-09-15T23:50:35.841Z,20.76
2022-09-15T23:53:02.595Z,20.68
2022-09-15T23:55:29.142Z,20.65
2022-09-15T23:57:56.094Z,20.60
